Time;durP1;ratioP1;P1;durP2;ratioP2;P2;SDS_P1;SDS_P2;PMS_P1;PMS_P2;Temp;Humidity;BMP_temperature;BMP_pressure;BME280_temperature;BME280_humidity;BME280_pressure;Samples;Min_cycle;Max_cycle;Signal;HPM_P1;HPM_P2
2022/07/04 00:00:28;;;;;;;0.23;0.23;;;19.00;99.90;;;;;;5037437;28;20243;-85
2022/07/04 00:02:55;;;;;;;0.63;0.63;;;18.90;99.90;;;;;;5040763;28;20277;-85
2022/07/04 00:05:21;;;;;;;0.23;0.23;;;19.10;99.90;;;;;;5034432;28;20290;-85
2022/07/04 00:07:48;;;;;;;0.10;0.10;;;19.00;99.90;;;;;;5035725;28;20186;-84
2022/07/04 00:10:17;;;;;;;0.43;0.43;;;18.90;99.90;;;;;;5040952;28;20238;-85
2022/07/04 00:12:44;;;;;;;0.60;0.60;;;19.00;99.90;;;;;;5035140;28;20289;-83
2022/07/04 00:15:10;;;;;;;0.20;0.20;;;18.90;99.90;;;;;;5037185;28;20209;-85
2022/07/04 00:17:36;;;;;;;0.53;0.30;;;18.90;99.90;;;;;;5036988;28;20188;-84
2022/07/04 00:20:03;;;;;;;0.20;0.20;;;18.80;99.90;;;;;;5036504;28;20206;-85
2022/07/04 00:22:29;;;;;;;0.40;0.40;;;18.80;99.90;;;;;;5036317;28;20186;-84
2022/07/04 00:24:54;;;;;;;0.20;0.20;;;18.90;99.90;;;;;;5038376;28;20549;-85
2022/07/04 00:27:20;;;;;;;0.30;0.27;;;19.00;99.90;;;;;;5035292;28;20181;-86
2022/07/04 00:29:45;;;;;;;0.47;0.37;;;18.90;99.90;;;;;;5034786;28;22304;-85
2022/07/04 00:32:11;;;;;;;0.23;0.23;;;18.80;99.90;;;;;;5036647;28;20191;-85
2022/07/04 00:34:36;;;;;;;0.20;0.20;;;18.90;99.90;;;;;;5035910;28;20197;-84
2022/07/04 00:37:02;;;;;;;4.73;0.37;;;18.90;99.90;;;;;;5043154;28;20186;-85
2022/07/04 00:39:29;;;;;;;0.23;0.23;;;18.90;99.90;;;;;;5036244;28;20228;-84
2022/07/04 00:41:55;;;;;;;0.30;0.20;;;18.80;99.90;;;;;;5036184;28;20186;-85
2022/07/04 00:44:20;;;;;;;0.37;0.37;;;18.90;99.90;;;;;;5056740;28;20231;-86
2022/07/04 00:46:47;;;;;;;0.10;0.10;;;18.90;99.90;;;;;;5036662;28;20234;-84
2022/07/04 00:49:15;;;;;;;0.20;0.20;;;18.90;99.90;;;;;;5035699;28;20927;-85
2022/07/04 00:51:42;;;;;;;0.87;0.60;;;18.70;99.90;;;;;;5039203;28;20192;-85
2022/07/04 00:54:09;;;;;;;0.30;0.30;;;18.80;99.90;;;;;;5039601;28;20202;-83
2022/07/04 00:56:40;;;;;;;0.40;0.40;;;18.80;99.90;;;;;;5041159;28;20241;-85
2022/07/04 00:59:06;;;;;;;0.20;0.20;;;18.70;99.90;;;;;;5041331;28;20363;-86
2022/07/04 01:01:33;;;;;;;0.30;0.30;;;18.60;99.90;;;;;;5040360;28;20224;-85
2022/07/04 01:04:00;;;;;;;0.37;0.37;;;18.60;99.90;;;;;;5040273;28;20392;-85
2022/07/04 01:06:26;;;;;;;0.33;0.33;;;18.40;99.90;;;;;;5040923;28;20192;-84
2022/07/04 01:08:51;;;;;;;0.73;0.73;;;18.40;99.90;;;;;;5040287;28;20182;-84
2022/07/04 01:11:17;;;;;;;0.53;0.37;;;18.40;99.90;;;;;;5039188;28;20208;-86
2022/07/04 01:13:43;;;;;;;0.13;0.13;;;18.40;99.90;;;;;;5040397;28;20241;-85
2022/07/04 01:16:09;;;;;;;0.33;0.33;;;18.50;99.90;;;;;;5039847;28;20224;-86
2022/07/04 01:18:36;;;;;;;0.13;0.13;;;18.40;99.90;;;;;;5039097;28;20405;-84
2022/07/04 01:21:02;;;;;;;0.20;0.20;;;18.50;99.90;;;;;;5038492;28;20689;-86
2022/07/04 01:23:27;;;;;;;0.20;0.20;;;18.50;99.90;;;;;;5037495;28;20266;-84
2022/07/04 01:25:53;;;;;;;0.23;0.23;;;18.40;99.90;;;;;;5039459;28;20194;-85
2022/07/04 01:28:20;;;;;;;0.30;0.30;;;18.30;99.90;;;;;;5040799;28;20202;-84
2022/07/04 01:30:46;;;;;;;3.80;0.50;;;18.20;99.90;;;;;;5040585;28;20214;-85
2022/07/04 01:33:11;;;;;;;0.30;0.30;;;18.30;99.90;;;;;;5061876;28;20665;-85
2022/07/04 01:35:37;;;;;;;0.20;0.20;;;18.40;99.90;;;;;;5040606;28;20191;-85
2022/07/04 01:38:03;;;;;;;0.30;0.30;;;18.30;99.90;;;;;;5040454;28;20185;-84
2022/07/04 01:40:29;;;;;;;0.33;0.33;;;18.30;99.90;;;;;;5040323;28;20676;-85
2022/07/04 01:42:54;;;;;;;0.40;0.40;;;18.30;99.90;;;;;;5037387;28;20210;-85
2022/07/04 01:45:20;;;;;;;0.27;0.27;;;18.30;99.90;;;;;;5038654;28;20793;-85
2022/07/04 01:47:45;;;;;;;0.20;0.20;;;18.30;99.90;;;;;;5037483;28;20194;-86
2022/07/04 01:50:14;;;;;;;0.20;0.20;;;18.40;99.90;;;;;;5039387;28;20254;-85
2022/07/04 01:52:40;;;;;;;0.20;0.20;;;18.40;99.90;;;;;;5038965;28;20212;-84
2022/07/04 01:55:08;;;;;;;0.77;0.60;;;18.40;99.90;;;;;;5037732;28;20205;-85
2022/07/04 01:57:34;;;;;;;0.23;0.23;;;18.30;99.90;;;;;;5037739;28;20194;-84
2022/07/04 02:02:43;;;;;;;0.20;0.20;;;18.40;99.90;;;;;;5038927;28;20185;-84
2022/07/04 02:05:09;;;;;;;0.30;0.30;;;18.50;99.90;;;;;;5035242;28;20187;-83
2022/07/04 02:07:34;;;;;;;1.10;1.10;;;18.40;99.90;;;;;;5035872;28;20217;-85
2022/07/04 02:10:00;;;;;;;0.30;0.30;;;18.40;99.90;;;;;;5037339;28;20305;-85
2022/07/04 02:15:10;;;;;;;0.30;0.30;;;18.60;99.90;;;;;;5037122;28;20339;-85
2022/07/04 02:17:36;;;;;;;0.37;0.37;;;18.70;99.90;;;;;;5037346;28;20250;-84
2022/07/04 02:20:01;;;;;;;0.10;0.10;;;18.70;99.90;;;;;;5035150;28;20584;-84
2022/07/04 02:22:27;;;;;;;0.47;0.47;;;18.70;99.90;;;;;;5036059;28;20202;-85
2022/07/04 02:24:52;;;;;;;0.30;0.30;;;18.70;99.90;;;;;;5034607;28;20206;-84
2022/07/04 02:27:18;;;;;;;0.30;0.30;;;18.70;99.90;;;;;;5034277;28;20228;-84
2022/07/04 02:29:43;;;;;;;0.20;0.20;;;18.70;99.90;;;;;;5036885;28;20244;-85
2022/07/04 02:32:09;;;;;;;0.20;0.20;;;18.70;99.90;;;;;;5035849;28;20209;-85
2022/07/04 02:34:35;;;;;;;0.20;0.20;;;18.80;99.90;;;;;;5035779;28;20279;-85
2022/07/04 02:37:01;;;;;;;0.17;0.17;;;18.60;99.90;;;;;;5037226;28;20187;-85
2022/07/04 02:39:26;;;;;;;0.40;0.40;;;18.60;99.90;;;;;;5034744;28;20212;-84
2022/07/04 02:41:52;;;;;;;0.20;0.20;;;18.60;99.90;;;;;;5037191;28;20331;-85
2022/07/04 02:44:17;;;;;;;0.30;0.30;;;18.50;99.90;;;;;;5001389;28;1037045;-84
2022/07/04 02:46:43;;;;;;;0.20;0.20;;;18.50;99.90;;;;;;5036459;28;20197;-84
2022/07/04 02:49:09;;;;;;;0.20;0.20;;;18.60;99.90;;;;;;5035603;28;20865;-84
2022/07/04 02:51:34;;;;;;;0.20;0.20;;;18.60;99.90;;;;;;5036920;28;20184;-84
2022/07/04 02:54:00;;;;;;;0.20;0.20;;;18.60;99.90;;;;;;5034582;28;20214;-84
2022/07/04 02:56:26;;;;;;;0.30;0.30;;;18.50;99.90;;;;;;5037121;28;20179;-83
2022/07/04 02:58:52;;;;;;;0.20;0.20;;;18.50;99.90;;;;;;5037254;28;20261;-84
2022/07/04 03:01:19;;;;;;;0.30;0.30;;;18.50;99.90;;;;;;5035785;28;20202;-84
2022/07/04 03:03:45;;;;;;;0.60;0.60;;;18.50;99.90;;;;;;5036934;28;20175;-84
2022/07/04 03:06:11;;;;;;;0.10;0.10;;;18.50;99.90;;;;;;5035863;28;20221;-85
2022/07/04 03:08:37;;;;;;;0.20;0.20;;;18.40;99.90;;;;;;5036104;28;20644;-84
2022/07/04 03:11:03;;;;;;;0.27;0.27;;;18.40;99.90;;;;;;5034931;28;20370;-85
2022/07/04 03:13:28;;;;;;;0.30;0.30;;;18.30;99.90;;;;;;5034912;28;20206;-84
2022/07/04 03:15:54;;;;;;;0.23;0.20;;;18.20;99.90;;;;;;5034654;28;20679;-84
2022/07/04 03:18:20;;;;;;;0.20;0.20;;;18.20;99.90;;;;;;5035580;28;21242;-85
2022/07/04 03:20:46;;;;;;;0.20;0.20;;;18.10;99.90;;;;;;5037048;28;20209;-83
2022/07/04 03:23:12;;;;;;;0.40;0.40;;;18.10;99.90;;;;;;5036929;28;20600;-85
2022/07/04 03:25:37;;;;;;;0.20;0.20;;;18.10;99.90;;;;;;5036445;28;20190;-84
2022/07/04 03:28:03;;;;;;;1.20;0.40;;;18.10;99.90;;;;;;5035939;28;20655;-84
2022/07/04 03:30:29;;;;;;;0.20;0.20;;;18.10;99.90;;;;;;5034510;28;20352;-84
2022/07/04 03:32:55;;;;;;;0.57;0.57;;;18.10;99.90;;;;;;5034755;28;20273;-84
2022/07/04 03:35:20;;;;;;;0.30;0.30;;;18.10;99.90;;;;;;5033994;28;20427;-84
2022/07/04 03:37:46;;;;;;;0.30;0.30;;;18.00;99.90;;;;;;5036991;28;20191;-84
2022/07/04 03:40:12;;;;;;;0.30;0.30;;;17.90;99.90;;;;;;5034684;28;20199;-85
2022/07/04 03:42:38;;;;;;;0.23;0.23;;;18.00;99.90;;;;;;5034553;28;20234;-84
2022/07/04 03:45:07;;;;;;;0.20;0.20;;;18.80;99.90;;;;;;5036181;28;20772;-84
2022/07/04 03:47:32;;;;;;;0.73;0.60;;;19.30;99.90;;;;;;5034336;28;20381;-85
2022/07/04 03:49:58;;;;;;;0.40;0.40;;;19.80;99.90;;;;;;5037460;28;20210;-84
2022/07/04 03:52:24;;;;;;;0.27;0.27;;;20.00;99.90;;;;;;5036004;28;20216;-84
2022/07/04 03:54:50;;;;;;;0.40;0.33;;;20.30;99.90;;;;;;5036453;28;21120;-85
2022/07/04 03:57:15;;;;;;;0.17;0.17;;;21.00;99.90;;;;;;5034588;28;20193;-84
2022/07/04 03:59:41;;;;;;;0.40;0.40;;;21.60;99.90;;;;;;5034473;28;20282;-84
2022/07/04 04:02:07;;;;;;;0.30;0.30;;;22.40;99.90;;;;;;5034628;28;20301;-84
2022/07/04 04:07:16;;;;;;;0.63;0.37;;;22.80;99.90;;;;;;5034050;28;20217;-85
2022/07/04 04:09:42;;;;;;;1.23;0.87;;;23.30;99.90;;;;;;5035366;28;21089;-84
2022/07/04 04:12:07;;;;;;;0.40;0.40;;;24.10;99.90;;;;;;5034380;28;20190;-84
2022/07/04 04:14:33;;;;;;;0.27;0.27;;;24.00;99.90;;;;;;5035200;28;20206;-84
2022/07/04 04:16:59;;;;;;;0.30;0.30;;;24.90;99.90;;;;;;5035933;28;20277;-84
2022/07/04 04:19:24;;;;;;;0.30;0.30;;;25.30;99.90;;;;;;5034598;28;20207;-84
2022/07/04 04:21:50;;;;;;;0.30;0.30;;;25.80;99.90;;;;;;5033963;28;20201;-85
2022/07/04 04:24:15;;;;;;;0.60;0.33;;;25.70;99.90;;;;;;5036158;28;20198;-84
2022/07/04 04:26:41;;;;;;;0.20;0.20;;;26.10;99.90;;;;;;5034765;28;20203;-85
2022/07/04 04:29:06;;;;;;;0.30;0.30;;;25.90;99.90;;;;;;5035966;28;20247;-84
2022/07/04 04:31:32;;;;;;;0.20;0.20;;;25.00;99.90;;;;;;5033568;28;20569;-84
2022/07/04 04:33:58;;;;;;;0.57;0.33;;;24.30;99.90;;;;;;5033616;28;20808;-85
2022/07/04 04:36:23;;;;;;;0.53;0.27;;;23.70;99.90;;;;;;5034754;28;20197;-84
2022/07/04 04:38:49;;;;;;;0.40;0.40;;;22.90;99.90;;;;;;5058729;28;20186;-85
2022/07/04 04:41:16;;;;;;;0.30;0.30;;;22.40;99.90;;;;;;5035983;28;20265;-86
2022/07/04 04:43:42;;;;;;;0.37;0.37;;;21.80;99.90;;;;;;5035211;28;21751;-84
2022/07/04 04:46:07;;;;;;;0.33;0.33;;;21.40;99.90;;;;;;5041178;28;20174;-85
2022/07/04 04:48:33;;;;;;;0.30;0.30;;;21.20;99.90;;;;;;5034585;28;20225;-85
2022/07/04 04:50:59;;;;;;;0.30;0.30;;;21.20;99.90;;;;;;5034774;28;20249;-85
2022/07/04 04:53:25;;;;;;;0.40;0.40;;;21.20;99.90;;;;;;5035314;28;20185;-84
2022/07/04 04:55:52;;;;;;;0.57;0.53;;;20.90;99.90;;;;;;5035015;28;20217;-84
2022/07/04 04:58:19;;;;;;;0.20;0.20;;;20.90;99.90;;;;;;5035377;28;20182;-84
2022/07/04 05:00:45;;;;;;;0.50;0.50;;;20.70;99.90;;;;;;5034471;28;20204;-84
2022/07/04 05:03:11;;;;;;;0.70;0.53;;;20.00;99.90;;;;;;5036217;28;20177;-84
2022/07/04 05:05:37;;;;;;;0.20;0.20;;;20.00;99.90;;;;;;5039577;28;20182;-84
2022/07/04 05:08:02;;;;;;;0.70;0.70;;;19.70;99.90;;;;;;5036117;28;20194;-85
2022/07/04 05:10:28;;;;;;;0.27;0.27;;;19.80;99.90;;;;;;5034186;28;20731;-84
2022/07/04 05:12:55;;;;;;;0.30;0.30;;;19.80;99.90;;;;;;5038779;28;20178;-84
2022/07/04 05:15:20;;;;;;;0.80;0.50;;;19.70;99.90;;;;;;5035466;28;20241;-82
2022/07/04 05:17:46;;;;;;;0.60;0.60;;;19.70;99.90;;;;;;5038384;28;20225;-82
2022/07/04 05:20:11;;;;;;;0.40;0.40;;;19.30;99.90;;;;;;5034242;28;20309;-84
2022/07/04 05:22:37;;;;;;;0.47;0.47;;;19.30;99.90;;;;;;5034956;28;20178;-84
2022/07/04 05:25:03;;;;;;;0.47;0.47;;;19.50;99.90;;;;;;5042173;28;20730;-83
2022/07/04 05:27:30;;;;;;;0.20;0.20;;;19.60;99.90;;;;;;5034438;28;20324;-85
2022/07/04 05:29:56;;;;;;;0.63;0.60;;;19.60;99.90;;;;;;5032898;28;20208;-84
2022/07/04 05:32:22;;;;;;;0.27;0.27;;;19.70;99.90;;;;;;5040502;28;20185;-84
2022/07/04 05:34:47;;;;;;;0.37;0.37;;;19.50;99.90;;;;;;5032344;28;20210;-83
2022/07/04 05:37:13;;;;;;;0.30;0.30;;;19.50;99.90;;;;;;5034388;28;20192;-84
2022/07/04 05:39:38;;;;;;;0.30;0.27;;;19.50;99.90;;;;;;5038259;28;20221;-84
2022/07/04 05:42:04;;;;;;;0.63;0.23;;;19.70;99.90;;;;;;5036184;28;20196;-84
2022/07/04 05:44:30;;;;;;;0.20;0.20;;;19.70;99.90;;;;;;5036834;28;20242;-84
2022/07/04 05:46:55;;;;;;;0.20;0.20;;;19.80;99.90;;;;;;5036898;28;20197;-83
2022/07/04 05:49:21;;;;;;;0.17;0.17;;;19.90;99.90;;;;;;5037306;28;20263;-83
2022/07/04 05:51:47;;;;;;;1.23;0.40;;;19.90;99.90;;;;;;5038909;28;20192;-84
2022/07/04 05:54:12;;;;;;;0.10;0.10;;;19.80;99.90;;;;;;5060644;28;20309;-83
2022/07/04 05:56:39;;;;;;;0.17;0.17;;;19.90;99.90;;;;;;5037502;28;20186;-83
2022/07/04 05:59:05;;;;;;;0.87;0.30;;;20.10;99.90;;;;;;5037991;28;20279;-84
2022/07/04 06:01:30;;;;;;;0.53;0.53;;;20.00;99.90;;;;;;5040255;28;20289;-83
2022/07/04 06:03:56;;;;;;;0.37;0.37;;;20.30;99.90;;;;;;5041215;28;20250;-84
2022/07/04 06:06:21;;;;;;;0.27;0.27;;;20.30;99.90;;;;;;5039149;28;21210;-83
2022/07/04 06:08:47;;;;;;;0.40;0.40;;;20.30;99.90;;;;;;5038330;28;20654;-83
2022/07/04 06:11:14;;;;;;;0.20;0.20;;;20.50;99.90;;;;;;5036668;28;20220;-83
2022/07/04 06:13:40;;;;;;;0.13;0.13;;;20.70;99.90;;;;;;5038246;28;20206;-83
2022/07/04 06:16:05;;;;;;;0.20;0.20;;;20.90;99.90;;;;;;5037798;28;20185;-83
2022/07/04 06:18:31;;;;;;;0.20;0.20;;;21.00;99.90;;;;;;5037596;28;20185;-83
2022/07/04 06:20:56;;;;;;;0.20;0.20;;;20.90;99.90;;;;;;5036724;28;20273;-83
2022/07/04 06:23:22;;;;;;;0.87;0.73;;;20.60;99.90;;;;;;5038962;28;20300;-83
2022/07/04 06:25:47;;;;;;;0.13;0.13;;;20.70;99.90;;;;;;5035889;28;20268;-83
2022/07/04 06:28:13;;;;;;;0.20;0.20;;;20.90;99.90;;;;;;5036635;28;20225;-83
2022/07/04 06:30:38;;;;;;;0.20;0.20;;;20.80;99.90;;;;;;5036417;28;20239;-84
2022/07/04 06:33:04;;;;;;;1.47;0.43;;;20.80;99.90;;;;;;5033406;28;20186;-83
2022/07/04 06:35:49;;;;;;;0.20;0.20;;;21.00;99.90;;;;;;5036660;28;20206;-83
2022/07/04 06:38:19;;;;;;;0.40;0.40;;;21.10;99.90;;;;;;5036071;28;20186;-83
2022/07/04 06:40:45;;;;;;;0.10;0.10;;;21.10;99.90;;;;;;5036347;28;20241;-84
2022/07/04 06:43:11;;;;;;;0.20;0.20;;;21.00;99.90;;;;;;5028336;28;20186;-84
2022/07/04 06:45:37;;;;;;;0.10;0.10;;;21.00;99.90;;;;;;5037334;28;20212;-82
2022/07/04 06:48:04;;;;;;;0.30;0.30;;;21.30;99.90;;;;;;5039962;28;20190;-83
2022/07/04 06:50:33;;;;;;;0.20;0.20;;;21.50;99.90;;;;;;5040236;28;20843;-83
2022/07/04 06:53:00;;;;;;;0.20;0.20;;;21.10;99.90;;;;;;5039806;28;20255;-83
2022/07/04 06:55:26;;;;;;;0.30;0.30;;;21.30;99.90;;;;;;5038286;28;20225;-82
2022/07/04 06:57:52;;;;;;;0.27;0.27;;;21.20;99.90;;;;;;5038037;28;20189;-84
2022/07/04 07:00:17;;;;;;;0.20;0.20;;;20.90;99.90;;;;;;5039431;28;20206;-87
2022/07/04 07:02:43;;;;;;;0.20;0.20;;;21.00;99.90;;;;;;5035894;28;20192;-83
2022/07/04 07:05:09;;;;;;;0.40;0.40;;;21.20;99.90;;;;;;5038920;28;21049;-85
2022/07/04 07:07:34;;;;;;;0.30;0.30;;;21.50;99.90;;;;;;5036120;28;20189;-85
2022/07/04 07:10:02;;;;;;;0.20;0.20;;;21.80;99.90;;;;;;5036487;28;20210;-85
2022/07/04 07:12:28;;;;;;;0.20;0.20;;;22.00;99.90;;;;;;5038177;28;20197;-86
2022/07/04 07:14:54;;;;;;;0.20;0.20;;;21.80;99.90;;;;;;5057942;28;20797;-84
2022/07/04 07:17:20;;;;;;;0.10;0.10;;;22.10;99.90;;;;;;5035049;28;20244;-87
2022/07/04 07:19:46;;;;;;;0.27;0.27;;;22.30;99.90;;;;;;5030953;28;20908;-85
2022/07/04 07:22:13;;;;;;;0.23;0.23;;;22.40;99.90;;;;;;5031716;28;20183;-85
2022/07/04 07:24:39;;;;;;;0.17;0.17;;;21.80;99.90;;;;;;5030471;28;20196;-85
2022/07/04 07:27:05;;;;;;;0.20;0.20;;;21.70;99.90;;;;;;5036117;28;20612;-86
2022/07/04 07:29:30;;;;;;;0.43;0.43;;;21.90;99.90;;;;;;5042096;28;20205;-85
2022/07/04 07:31:56;;;;;;;0.60;0.30;;;22.10;99.90;;;;;;5039192;28;20198;-85
2022/07/04 07:34:22;;;;;;;0.20;0.20;;;22.00;99.90;;;;;;5033797;28;20232;-85
2022/07/04 07:36:47;;;;;;;0.30;0.30;;;21.90;99.90;;;;;;5033400;28;20652;-85
2022/07/04 07:39:13;;;;;;;0.47;0.30;;;22.30;99.90;;;;;;5034662;28;20186;-86
2022/07/04 07:41:38;;;;;;;0.30;0.30;;;21.80;99.90;;;;;;5032172;28;20190;-85
2022/07/04 07:44:04;;;;;;;0.53;0.53;;;22.10;99.90;;;;;;5034380;28;20205;-85
2022/07/04 07:46:30;;;;;;;0.23;0.23;;;22.20;99.90;;;;;;5054476;28;20186;-85
2022/07/04 07:48:56;;;;;;;0.20;0.20;;;22.10;99.90;;;;;;5056747;28;20197;-86
2022/07/04 07:51:22;;;;;;;0.20;0.20;;;22.30;99.90;;;;;;5035465;28;21273;-86
2022/07/04 07:53:47;;;;;;;0.30;0.30;;;22.50;99.90;;;;;;5034363;28;20698;-86
2022/07/04 07:56:13;;;;;;;0.40;0.40;;;22.30;99.90;;;;;;5033528;28;21067;-84
2022/07/04 07:58:38;;;;;;;0.47;0.47;;;22.10;99.90;;;;;;5034004;28;20182;-84
2022/07/04 08:01:04;;;;;;;1.03;0.93;;;22.60;99.90;;;;;;5032310;28;20221;-85
2022/07/04 08:06:15;;;;;;;0.37;0.37;;;22.30;99.90;;;;;;5035574;28;20273;-84
2022/07/04 08:08:41;;;;;;;0.27;0.27;;;22.80;99.90;;;;;;5035576;28;20227;-85
2022/07/04 08:11:07;;;;;;;0.20;0.20;;;23.10;99.90;;;;;;5032290;28;20564;-85
2022/07/04 08:13:33;;;;;;;0.30;0.30;;;23.30;99.90;;;;;;5032196;28;20194;-85
2022/07/04 08:15:59;;;;;;;0.20;0.20;;;23.40;99.90;;;;;;5034391;28;20186;-84
2022/07/04 08:18:25;;;;;;;0.60;0.57;;;22.80;99.90;;;;;;5033806;28;20191;-84
2022/07/04 08:20:50;;;;;;;0.20;0.20;;;23.00;99.90;;;;;;5032181;28;20717;-85
2022/07/04 08:23:16;;;;;;;0.50;0.20;;;22.80;99.90;;;;;;5035050;28;20220;-84
2022/07/04 08:25:42;;;;;;;0.27;0.27;;;22.80;99.90;;;;;;5034535;28;20193;-84
2022/07/04 08:28:07;;;;;;;0.20;0.20;;;22.40;99.90;;;;;;5034731;28;20224;-84
2022/07/04 08:30:33;;;;;;;0.30;0.30;;;22.70;99.90;;;;;;5033031;28;20240;-85
2022/07/04 08:32:59;;;;;;;0.20;0.20;;;23.00;99.90;;;;;;5040014;28;20915;-84
2022/07/04 08:35:25;;;;;;;0.20;0.20;;;23.40;99.90;;;;;;5031286;28;20217;-84
2022/07/04 08:37:53;;;;;;;0.20;0.20;;;23.60;99.90;;;;;;5031783;28;20198;-85
2022/07/04 08:40:23;;;;;;;0.40;0.40;;;23.50;99.90;;;;;;5031670;28;20288;-84
2022/07/04 08:42:49;;;;;;;0.20;0.20;;;23.10;99.90;;;;;;5033097;28;20192;-85
2022/07/04 08:45:16;;;;;;;0.47;0.27;;;23.40;99.90;;;;;;5032174;28;20576;-86
2022/07/04 08:47:43;;;;;;;0.27;0.27;;;23.40;99.90;;;;;;5033932;28;20189;-85
2022/07/04 08:50:12;;;;;;;0.30;0.20;;;23.40;99.90;;;;;;5034433;28;20617;-83
2022/07/04 08:52:39;;;;;;;0.20;0.20;;;23.90;99.90;;;;;;5040010;28;20191;-84
2022/07/04 09:00:37;;;;;;;0.30;0.30;;;23.80;99.90;;;;;;5035660;28;20228;-85
2022/07/04 09:03:03;;;;;;;0.33;0.33;;;23.50;99.90;;;;;;5034844;28;20200;-85
2022/07/04 09:05:32;;;;;;;0.37;0.30;;;23.50;99.90;;;;;;5034521;28;20185;-85
2022/07/04 09:07:58;;;;;;;0.20;0.20;;;24.20;99.90;;;;;;5034338;28;20233;-85
2022/07/04 09:10:24;;;;;;;0.23;0.23;;;24.20;99.90;;;;;;5035499;28;20210;-85
2022/07/04 09:12:49;;;;;;;0.30;0.30;;;24.60;99.90;;;;;;5043451;28;20774;-85
2022/07/04 09:15:16;;;;;;;1.03;0.40;;;24.70;99.90;;;;;;5038025;28;20206;-85
2022/07/04 09:17:42;;;;;;;0.23;0.23;;;24.60;99.90;;;;;;5037130;28;20741;-85
2022/07/04 09:20:19;;;;;;;0.43;0.43;;;24.70;99.90;;;;;;5040235;28;20205;-85
2022/07/04 09:22:46;;;;;;;0.20;0.20;;;25.10;99.90;;;;;;5042930;28;20208;-85
2022/07/04 09:25:14;;;;;;;0.40;0.40;;;25.40;99.90;;;;;;5036862;28;20284;-85
2022/07/04 09:27:47;;;;;;;0.10;0.10;;;25.50;99.90;;;;;;5045070;28;20194;-85
2022/07/04 09:30:17;;;;;;;0.40;0.40;;;25.70;99.90;;;;;;5037915;28;20214;-85
2022/07/04 09:32:52;;;;;;;0.20;0.20;;;25.50;99.90;;;;;;5037595;28;20186;-85
2022/07/04 09:35:23;;;;;;;0.53;0.53;;;25.60;99.90;;;;;;5043056;28;20210;-85
2022/07/04 09:37:54;;;;;;;0.40;0.40;;;25.30;99.90;;;;;;5061246;28;20265;-85
2022/07/04 09:40:23;;;;;;;0.40;0.40;;;25.60;99.90;;;;;;5038717;28;20206;-85
2022/07/04 09:42:49;;;;;;;0.10;0.10;;;25.60;99.90;;;;;;5038075;28;20185;-85
2022/07/04 09:45:14;;;;;;;0.40;0.40;;;25.80;99.90;;;;;;5036439;28;20209;-86
2022/07/04 09:47:41;;;;;;;0.57;0.30;;;25.90;99.90;;;;;;5036447;28;20246;-85
2022/07/04 09:50:10;;;;;;;0.10;0.10;;;25.90;99.90;;;;;;5043070;28;20233;-85
2022/07/04 09:52:46;;;;;;;0.20;0.20;;;26.20;99.90;;;;;;5036832;28;20188;-85
2022/07/04 09:55:11;;;;;;;0.10;0.10;;;26.30;99.90;;;;;;5038801;28;20275;-85
2022/07/04 09:57:37;;;;;;;0.20;0.20;;;26.30;99.90;;;;;;5036210;28;20182;-85
2022/07/04 10:00:23;;;;;;;0.23;0.23;;;26.20;99.90;;;;;;5038357;28;21084;-85
2022/07/04 10:02:50;;;;;;;0.20;0.20;;;26.40;99.90;;;;;;5035302;28;20185;-85
2022/07/04 10:05:26;;;;;;;0.57;0.40;;;25.70;99.90;;;;;;5037758;28;20178;-85
2022/07/04 10:07:54;;;;;;;0.30;0.30;;;25.50;99.90;;;;;;5038371;28;20177;-85
2022/07/04 10:10:25;;;;;;;0.20;0.20;;;26.00;99.90;;;;;;5037031;28;20958;-85
2022/07/04 10:13:12;;;;;;;0.20;0.20;;;26.30;99.90;;;;;;5037477;28;20173;-85
2022/07/04 10:15:39;;;;;;;0.20;0.20;;;25.90;99.90;;;;;;5035900;28;20209;-86
2022/07/04 10:18:06;;;;;;;0.50;0.40;;;26.20;99.90;;;;;;5043282;28;20205;-85
2022/07/04 10:20:31;;;;;;;0.20;0.20;;;26.40;99.90;;;;;;5036629;28;20205;-85
2022/07/04 10:22:58;;;;;;;0.30;0.30;;;26.30;99.90;;;;;;5037727;28;20277;-85
2022/07/04 10:25:24;;;;;;;0.17;0.17;;;25.90;99.90;;;;;;5043166;28;20709;-85
2022/07/04 10:27:51;;;;;;;0.20;0.20;;;26.10;99.90;;;;;;5034343;28;20190;-86
2022/07/04 10:30:24;;;;;;;0.27;0.27;;;26.00;99.90;;;;;;5035598;28;20209;-86
2022/07/04 10:32:51;;;;;;;0.20;0.20;;;26.30;99.90;;;;;;5036463;28;20252;-85
2022/07/04 10:35:37;;;;;;;0.10;0.10;;;26.70;99.90;;;;;;5037176;28;20213;-85
2022/07/04 10:38:07;;;;;;;0.20;0.20;;;27.10;99.90;;;;;;5037747;28;20428;-85
2022/07/04 10:40:47;;;;;;;0.10;0.10;;;27.10;99.90;;;;;;5041478;28;20213;-85
2022/07/04 10:43:37;;;;;;;1.20;0.33;;;27.50;99.90;;;;;;5034053;28;20239;-85
2022/07/04 10:46:11;;;;;;;0.75;0.43;;;27.60;99.90;;;;;;5042407;28;20655;-85
2022/07/04 10:49:00;;;;;;;0.30;0.30;;;27.40;99.90;;;;;;5034733;28;20181;-85
2022/07/04 10:51:42;;;;;;;0.10;0.10;;;27.30;99.90;;;;;;5036354;28;20180;-85
2022/07/04 10:54:11;;;;;;;0.63;0.30;;;27.00;99.90;;;;;;5034560;28;20247;-86
2022/07/04 10:56:38;;;;;;;0.45;0.32;;;27.50;99.90;;;;;;5042758;28;20193;-85
2022/07/04 10:59:19;;;;;;;0.20;0.20;;;27.90;99.90;;;;;;5035194;28;20320;-85
2022/07/04 11:02:08;;;;;;;0.45;0.40;;;28.00;99.90;;;;;;5035559;28;20201;-85
2022/07/04 11:05:01;;;;;;;0.20;0.20;;;28.00;99.90;;;;;;5035005;28;20186;-85
2022/07/04 11:07:29;;;;;;;0.20;0.20;;;27.70;99.90;;;;;;5036456;28;20194;-85
2022/07/04 11:10:21;;;;;;;0.28;0.28;;;27.90;99.90;;;;;;5034372;28;20224;-85
2022/07/04 11:12:59;;;;;;;0.20;0.20;;;28.20;99.90;;;;;;5036628;28;20260;-85
2022/07/04 11:15:25;;;;;;;0.32;0.32;;;28.30;99.90;;;;;;5042317;28;20235;-85
2022/07/04 11:17:54;;;;;;;0.20;0.20;;;28.30;99.90;;;;;;5036076;28;20178;-86
2022/07/04 11:20:20;;;;;;;0.10;0.10;;;28.20;99.90;;;;;;5035288;28;20300;-85
2022/07/04 11:22:46;;;;;;;0.28;0.28;;;28.40;99.90;;;;;;5036869;28;20240;-85
2022/07/04 11:25:12;;;;;;;0.20;0.20;;;28.10;99.90;;;;;;5034877;28;20952;-85
2022/07/04 11:27:39;;;;;;;0.20;0.20;;;28.20;99.90;;;;;;5035106;28;20186;-85
2022/07/04 11:30:05;;;;;;;0.20;0.20;;;28.50;99.90;;;;;;5036249;28;20292;-86
2022/07/04 11:32:32;;;;;;;0.20;0.20;;;28.50;99.90;;;;;;5033893;28;20182;-85
2022/07/04 11:34:58;;;;;;;0.20;0.20;;;28.60;99.90;;;;;;5058047;28;20212;-85
2022/07/04 11:37:23;;;;;;;0.20;0.20;;;28.70;99.90;;;;;;5034954;28;20179;-85
2022/07/04 11:45:02;;;;;;;0.10;0.10;;;28.10;99.90;;;;;;5034737;28;20205;-85
2022/07/04 11:45:49;;;;;;;0.20;0.20;;;28.60;99.90;;;;;;5035125;28;20246;-85
2022/07/04 11:48:25;;;;;;;0.30;0.30;;;28.70;99.90;;;;;;5035861;28;20185;-85
2022/07/04 11:50:51;;;;;;;0.20;0.20;;;28.70;99.90;;;;;;5033163;28;20205;-85
2022/07/04 11:53:18;;;;;;;0.22;0.22;;;28.80;99.90;;;;;;5034417;28;20178;-84
2022/07/04 11:55:57;;;;;;;0.10;0.10;;;28.60;99.90;;;;;;5034829;28;20308;-86
2022/07/04 11:58:24;;;;;;;0.30;0.30;;;28.40;99.90;;;;;;5033848;28;20182;-85
2022/07/04 12:00:49;;;;;;;0.10;0.10;;;27.70;99.90;;;;;;5034631;28;20211;-84
2022/07/04 12:03:15;;;;;;;0.10;0.10;;;27.60;99.90;;;;;;5032088;28;20182;-85
2022/07/04 12:05:43;;;;;;;0.13;0.13;;;27.80;99.90;;;;;;5032997;28;20228;-85
2022/07/04 12:08:09;;;;;;;0.80;0.80;;;27.70;99.90;;;;;;5034138;28;20718;-85
2022/07/04 12:10:35;;;;;;;0.20;0.20;;;28.00;99.90;;;;;;5040787;28;20296;-85
2022/07/04 12:13:07;;;;;;;0.10;0.10;;;28.20;99.90;;;;;;5033299;28;20198;-85
2022/07/04 12:15:37;;;;;;;0.25;0.25;;;28.70;99.90;;;;;;5033368;28;20221;-86
2022/07/04 12:18:05;;;;;;;0.40;0.40;;;28.80;99.90;;;;;;5031748;28;20182;-84
2022/07/04 12:20:32;;;;;;;0.28;0.28;;;28.60;99.90;;;;;;5034684;28;20259;-85
2022/07/04 12:23:00;;;;;;;0.22;0.20;;;28.10;99.90;;;;;;5035193;28;20244;-86
2022/07/04 12:25:34;;;;;;;0.20;0.20;;;28.10;99.90;;;;;;5037036;28;20182;-86
2022/07/04 12:28:09;;;;;;;0.28;0.28;;;28.40;99.90;;;;;;5040479;28;20231;-85
2022/07/04 12:30:58;;;;;;;0.20;0.20;;;28.30;99.90;;;;;;5034462;28;20210;-85
2022/07/04 12:33:25;;;;;;;0.20;0.20;;;27.70;99.90;;;;;;5032787;28;20185;-85
2022/07/04 12:36:02;;;;;;;0.10;0.10;;;27.30;99.90;;;;;;5033476;28;20579;-85
2022/07/04 12:38:28;;;;;;;0.20;0.20;;;27.90;99.90;;;;;;5034742;28;20189;-85
2022/07/04 12:40:58;;;;;;;0.55;0.55;;;27.70;99.90;;;;;;5032566;28;20213;-86
2022/07/04 12:43:43;;;;;;;0.20;0.20;;;27.40;99.90;;;;;;5032770;28;20181;-85
2022/07/04 12:46:25;;;;;;;0.20;0.20;;;27.70;99.90;;;;;;5035800;28;20184;-85
2022/07/04 12:48:52;;;;;;;0.20;0.20;;;27.30;99.90;;;;;;5037830;28;20772;-86
2022/07/04 12:51:25;;;;;;;0.30;0.30;;;27.60;99.90;;;;;;5038996;28;20202;-85
2022/07/04 12:53:53;;;;;;;0.55;0.20;;;27.90;99.90;;;;;;5038258;28;20578;-85
2022/07/04 12:56:37;;;;;;;0.30;0.30;;;28.10;99.90;;;;;;5036462;28;20189;-85
2022/07/04 12:59:05;;;;;;;0.20;0.20;;;28.00;99.90;;;;;;5040187;28;20256;-85
2022/07/04 13:01:31;;;;;;;0.25;0.25;;;28.30;99.90;;;;;;5041141;28;20247;-85
2022/07/04 13:03:57;;;;;;;0.20;0.20;;;28.10;99.90;;;;;;5039258;28;20198;-85
2022/07/04 13:06:24;;;;;;;0.20;0.20;;;27.80;99.90;;;;;;5038017;28;20290;-85
2022/07/04 13:08:50;;;;;;;0.30;0.30;;;27.60;99.90;;;;;;5034610;28;20190;-85